createdAt,value
2022-09-06T00:00:12.920Z,71.77
2022-09-06T00:00:44.352Z,72.28
2022-09-06T00:01:17.651Z,71.82
2022-09-06T00:01:49.217Z,72.59
2022-09-06T00:02:20.864Z,72.29
2022-09-06T00:02:52.306Z,72.36
2022-09-06T00:03:24.135Z,72.39
2022-09-06T00:04:15.533Z,71.95
2022-09-06T00:04:48.151Z,72.05
2022-09-06T00:05:19.960Z,72.38
2022-09-06T00:05:51.460Z,72.36
2022-09-06T00:06:22.918Z,72.11
2022-09-06T00:06:54.249Z,72.01
2022-09-06T00:07:25.693Z,72.47
2022-09-06T00:08:03.024Z,71.85
2022-09-06T00:08:34.362Z,72.29
2022-09-06T00:09:05.901Z,72.20
2022-09-06T00:09:37.352Z,72.10
2022-09-06T00:10:09.688Z,71.74
2022-09-06T00:10:42.784Z,72.41
2022-09-06T00:11:16.019Z,71.25
2022-09-06T00:11:47.333Z,72.28
2022-09-06T00:12:18.850Z,72.01
2022-09-06T00:12:50.197Z,71.37
2022-09-06T00:13:21.647Z,72.06
2022-09-06T00:13:53.003Z,72.29
2022-09-06T00:14:24.541Z,72.41
2022-09-06T00:14:56.408Z,72.74
2022-09-06T00:15:27.840Z,72.59
2022-09-06T00:16:15.063Z,72.60
2022-09-06T00:16:46.790Z,72.25
2022-09-06T00:17:18.524Z,72.75
2022-09-06T00:17:51.530Z,72.25
2022-09-06T00:18:41.980Z,72.42
2022-09-06T00:19:13.362Z,72.39
2022-09-06T00:19:44.741Z,72.22
2022-09-06T00:20:16.215Z,72.38
2022-09-06T00:20:47.798Z,72.26
2022-09-06T00:21:23.050Z,73.10
2022-09-06T00:21:54.399Z,72.26
2022-09-06T00:22:25.776Z,72.17
2022-09-06T00:23:03.216Z,72.71
2022-09-06T00:23:34.530Z,72.36
2022-09-06T00:24:06.034Z,71.69
2022-09-06T00:24:37.691Z,72.18
2022-09-06T00:25:09.638Z,71.99
2022-09-06T00:25:41.793Z,72.24
2022-09-06T00:26:14.191Z,72.40
2022-09-06T00:26:45.525Z,71.83
2022-09-06T00:27:35.448Z,72.10
2022-09-06T00:28:08.189Z,72.65
2022-09-06T00:28:39.871Z,71.56
2022-09-06T00:29:11.261Z,71.30
2022-09-06T00:29:42.759Z,72.61
2022-09-06T00:30:14.409Z,72.48
2022-09-06T00:30:45.873Z,72.01
2022-09-06T00:31:20.323Z,72.07
2022-09-06T00:31:51.772Z,72.23
2022-09-06T00:32:23.253Z,71.85
2022-09-06T00:32:55.321Z,72.12
2022-09-06T00:33:26.799Z,71.94
2022-09-06T00:33:58.159Z,71.83
2022-09-06T00:34:29.557Z,71.34
2022-09-06T00:35:00.892Z,71.24
2022-09-06T00:35:32.282Z,71.25
2022-09-06T00:36:04.268Z,71.26
2022-09-06T00:36:35.693Z,71.06
2022-09-06T00:37:07.048Z,71.08
2022-09-06T00:37:38.396Z,70.51
2022-09-06T00:38:09.733Z,71.51
2022-09-06T00:38:41.922Z,71.26
2022-09-06T00:39:13.291Z,71.27
2022-09-06T00:39:44.806Z,71.32
2022-09-06T00:40:16.681Z,71.54
2022-09-06T00:40:48.017Z,72.45
2022-09-06T00:41:19.416Z,72.19
2022-09-06T00:41:51.101Z,72.69
2022-09-06T00:42:22.674Z,72.84
2022-09-06T00:42:54.052Z,72.29
2022-09-06T00:43:25.500Z,72.73
2022-09-06T00:43:56.893Z,72.80
2022-09-06T00:44:28.352Z,72.02
2022-09-06T00:45:00.367Z,72.74
2022-09-06T00:45:32.408Z,72.63
2022-09-06T00:46:06.270Z,72.00
2022-09-06T00:46:41.909Z,72.61
2022-09-06T00:47:13.505Z,72.34
2022-09-06T00:47:45.437Z,72.91
2022-09-06T00:48:17.369Z,71.94
2022-09-06T00:49:46.307Z,72.74
2022-09-06T00:50:19.232Z,73.18
2022-09-06T00:50:59.211Z,72.45
2022-09-06T00:51:31.491Z,72.89
2022-09-06T00:52:27.052Z,72.26
2022-09-06T00:52:58.463Z,72.81
2022-09-06T00:53:31.852Z,72.96
2022-09-06T00:54:05.554Z,72.20
2022-09-06T00:54:37.712Z,72.10
2022-09-06T00:55:09.942Z,72.24
2022-09-06T00:56:32.995Z,72.28
2022-09-06T00:57:04.614Z,72.47
2022-09-06T00:58:26.885Z,72.94
2022-09-06T00:59:48.170Z,72.91
2022-09-06T01:00:20.754Z,72.74
2022-09-06T01:00:52.611Z,73.35
2022-09-06T01:01:24.035Z,72.57
2022-09-06T01:01:55.635Z,72.76
2022-09-06T01:02:27.196Z,73.33
2022-09-06T01:02:58.639Z,73.57
2022-09-06T01:03:30.009Z,72.95
2022-09-06T01:04:02.512Z,73.09
2022-09-06T01:04:34.320Z,72.90
2022-09-06T01:05:06.315Z,72.68
2022-09-06T01:05:57.092Z,72.48
2022-09-06T01:06:36.759Z,71.93
2022-09-06T01:07:25.199Z,72.61
2022-09-06T01:08:02.348Z,72.84
2022-09-06T01:09:15.719Z,71.65
2022-09-06T01:09:56.938Z,72.98
2022-09-06T01:10:37.983Z,72.81
2022-09-06T01:11:35.447Z,71.96
2022-09-06T01:12:29.443Z,71.89
2022-09-06T01:13:26.691Z,72.99
2022-09-06T01:14:25.244Z,73.31
2022-09-06T01:15:09.212Z,72.82
2022-09-06T01:16:25.716Z,73.25
2022-09-06T01:17:09.099Z,72.72
2022-09-06T01:18:29.375Z,72.46
2022-09-06T01:19:09.828Z,73.73
2022-09-06T01:20:01.256Z,73.13
2022-09-06T01:20:41.839Z,72.52
2022-09-06T01:22:43.612Z,73.08
2022-09-06T01:23:55.156Z,72.66
2022-09-06T01:24:50.250Z,72.79
2022-09-06T01:25:30.423Z,73.56
2022-09-06T01:26:20.344Z,73.59
2022-09-06T01:27:32.938Z,72.84
2022-09-06T01:28:31.660Z,73.20
2022-09-06T01:29:13.177Z,74.46
2022-09-06T01:30:10.177Z,73.45
2022-09-06T01:30:50.811Z,73.42
2022-09-06T01:31:35.263Z,72.95
2022-09-06T01:32:31.147Z,73.76
2022-09-06T01:33:51.607Z,73.82
2022-09-06T01:34:35.152Z,73.56
2022-09-06T01:35:29.923Z,74.02
2022-09-06T01:36:05.664Z,74.02
2022-09-06T01:37:08.289Z,73.98
2022-09-06T01:37:38.119Z,73.80
2022-09-06T01:38:10.522Z,73.43
2022-09-06T01:38:41.933Z,73.51
2022-09-06T01:39:24.042Z,73.30
2022-09-06T01:39:55.623Z,74.56
2022-09-06T01:40:28.378Z,73.95
2022-09-06T01:40:59.718Z,74.04
2022-09-06T01:41:32.382Z,73.52
2022-09-06T01:42:15.781Z,74.27
2022-09-06T01:42:49.147Z,73.52
2022-09-06T01:43:27.642Z,73.92
2022-09-06T01:43:59.595Z,74.46
2022-09-06T01:44:32.148Z,74.40
2022-09-06T01:46:33.292Z,73.56
2022-09-06T01:47:32.220Z,73.87
2022-09-06T01:48:24.115Z,74.27
2022-09-06T01:49:25.276Z,74.41
2022-09-06T01:50:34.891Z,73.97
2022-09-06T01:51:23.574Z,74.17
2022-09-06T01:52:13.227Z,73.74
2022-09-06T01:53:23.580Z,74.01
2022-09-06T01:54:03.748Z,74.00
2022-09-06T01:54:58.397Z,73.98
2022-09-06T01:57:00.896Z,74.59
2022-09-06T01:57:42.598Z,74.68
2022-09-06T01:58:29.964Z,73.85
2022-09-06T01:59:30.416Z,74.93
2022-09-06T02:00:14.760Z,74.52
2022-09-06T02:00:58.868Z,74.85
2022-09-06T02:02:13.473Z,74.66
2022-09-06T02:03:04.423Z,74.96
2022-09-06T02:04:46.959Z,74.97
2022-09-06T02:05:42.069Z,74.67
2022-09-06T02:06:20.175Z,75.45
2022-09-06T02:07:00.810Z,75.68
2022-09-06T02:07:35.037Z,75.71
2022-09-06T02:08:14.443Z,75.92
2022-09-06T02:08:48.927Z,75.95
2022-09-06T02:09:26.736Z,75.92
2022-09-06T02:10:27.577Z,75.74
2022-09-06T02:11:01.652Z,75.61
2022-09-06T02:11:54.556Z,76.13
2022-09-06T02:12:30.318Z,75.02
2022-09-06T02:13:05.068Z,75.23
2022-09-06T02:13:41.900Z,74.93
2022-09-06T02:14:26.222Z,75.27
2022-09-06T02:15:21.475Z,74.50
2022-09-06T02:15:58.436Z,73.98
2022-09-06T02:16:34.657Z,75.25
2022-09-06T02:17:11.760Z,74.51
2022-09-06T02:18:43.879Z,75.25
2022-09-06T02:19:23.096Z,75.96
2022-09-06T02:20:02.799Z,75.86
2022-09-06T02:20:39.822Z,75.25
2022-09-06T02:21:15.237Z,75.88
2022-09-06T02:21:47.844Z,76.33
2022-09-06T02:22:23.704Z,75.38
2022-09-06T02:22:59.397Z,75.88
2022-09-06T02:23:34.806Z,75.84
2022-09-06T02:24:11.900Z,75.88
2022-09-06T02:24:46.012Z,75.94
2022-09-06T02:25:25.164Z,75.68
2022-09-06T02:26:17.536Z,75.52
2022-09-06T02:26:49.772Z,75.81
2022-09-06T02:27:21.244Z,76.55
2022-09-06T02:27:54.082Z,75.78
2022-09-06T02:28:26.002Z,75.96
2022-09-06T02:28:57.886Z,76.08
2022-09-06T02:29:29.462Z,75.81
2022-09-06T02:30:02.973Z,76.61
2022-09-06T02:30:45.255Z,76.03
2022-09-06T02:31:38.850Z,76.10
2022-09-06T02:32:19.873Z,76.03
2022-09-06T02:33:00.693Z,76.70
2022-09-06T02:33:34.104Z,76.29
2022-09-06T02:34:06.607Z,76.15
2022-09-06T02:34:40.000Z,77.03
2022-09-06T02:35:14.788Z,76.28
2022-09-06T02:35:52.293Z,75.97
2022-09-06T02:36:42.663Z,76.16
2022-09-06T02:37:16.081Z,76.55
2022-09-06T02:37:47.466Z,77.03
2022-09-06T02:38:22.351Z,76.07
2022-09-06T02:38:54.828Z,76.89
2022-09-06T02:39:26.214Z,77.31
2022-09-06T02:39:57.796Z,76.95
2022-09-06T02:40:29.240Z,77.65
2022-09-06T02:41:01.151Z,76.81
2022-09-06T02:41:33.803Z,76.95
2022-09-06T02:42:06.555Z,76.95
2022-09-06T02:42:39.163Z,76.86
2022-09-06T02:43:10.475Z,76.66
2022-09-06T02:43:43.433Z,76.80
2022-09-06T02:44:15.245Z,76.97
2022-09-06T02:44:46.582Z,77.02
2022-09-06T02:45:17.930Z,76.66
2022-09-06T02:45:49.467Z,76.81
2022-09-06T02:46:21.107Z,77.00
2022-09-06T02:46:56.841Z,77.29
2022-09-06T02:47:28.545Z,77.57
2022-09-06T02:47:59.961Z,77.62
2022-09-06T02:48:50.041Z,76.94
2022-09-06T02:50:10.516Z,76.77
2022-09-06T02:50:41.846Z,76.94
2022-09-06T02:51:13.224Z,76.59
2022-09-06T02:51:44.617Z,76.44
2022-09-06T02:52:15.945Z,76.84
2022-09-06T02:53:00.159Z,77.45
2022-09-06T02:53:32.054Z,76.42
2022-09-06T02:54:03.547Z,77.44
2022-09-06T02:54:34.908Z,77.17
2022-09-06T02:55:07.104Z,76.46
2022-09-06T02:55:39.268Z,76.11
2022-09-06T02:56:10.862Z,76.46
2022-09-06T02:56:42.351Z,76.88
2022-09-06T02:57:14.109Z,76.90
2022-09-06T02:57:45.573Z,76.78
2022-09-06T02:58:17.122Z,76.68
2022-09-06T02:58:49.817Z,76.71
2022-09-06T02:59:21.299Z,76.17
2022-09-06T02:59:52.630Z,76.20
2022-09-06T03:00:25.033Z,76.59
2022-09-06T03:00:56.481Z,76.77
2022-09-06T03:01:27.977Z,76.15
2022-09-06T03:02:00.144Z,76.47
2022-09-06T03:02:31.824Z,76.74
2022-09-06T03:03:03.918Z,76.59
2022-09-06T03:03:35.584Z,76.06
2022-09-06T03:04:06.952Z,76.49
2022-09-06T03:04:38.425Z,76.64
2022-09-06T03:05:09.834Z,76.19
2022-09-06T03:05:41.313Z,76.83
2022-09-06T03:06:12.681Z,75.96
2022-09-06T03:07:02.717Z,75.90
2022-09-06T03:07:34.066Z,75.90
2022-09-06T03:08:06.013Z,76.22
2022-09-06T03:08:38.090Z,76.55
2022-09-06T03:09:10.372Z,76.20
2022-09-06T03:09:41.725Z,75.72
2022-09-06T03:10:13.078Z,76.39
2022-09-06T03:10:56.197Z,76.12
2022-09-06T03:11:28.201Z,76.01
2022-09-06T03:12:17.963Z,76.55
2022-09-06T03:12:49.303Z,77.09
2022-09-06T03:14:10.199Z,76.30
2022-09-06T03:15:19.030Z,76.81
2022-09-06T03:15:55.967Z,76.32
2022-09-06T03:16:27.357Z,76.46
2022-09-06T03:16:58.741Z,75.97
2022-09-06T03:17:30.131Z,76.09
2022-09-06T03:18:02.278Z,76.51
2022-09-06T03:18:33.665Z,76.78
2022-09-06T03:19:05.072Z,76.53
2022-09-06T03:19:36.410Z,76.11
2022-09-06T03:20:09.706Z,76.22
2022-09-06T03:20:41.066Z,75.93
2022-09-06T03:21:12.505Z,76.34
2022-09-06T03:21:43.850Z,76.22
2022-09-06T03:22:15.315Z,76.46
2022-09-06T03:22:46.720Z,76.34
2022-09-06T03:23:19.267Z,76.37
2022-09-06T03:23:50.921Z,76.80
2022-09-06T03:24:22.266Z,77.23
2022-09-06T03:24:53.711Z,76.54
2022-09-06T03:25:26.113Z,76.37
2022-09-06T03:25:57.667Z,76.34
2022-09-06T03:27:19.472Z,76.19
2022-09-06T03:27:51.153Z,75.87
2022-09-06T03:28:23.594Z,75.85
2022-09-06T03:28:54.987Z,76.61
2022-09-06T03:29:26.361Z,76.14
2022-09-06T03:29:57.988Z,76.01
2022-09-06T03:30:29.576Z,76.71
2022-09-06T03:31:01.017Z,76.10
2022-09-06T03:31:32.464Z,76.60
2022-09-06T03:32:03.919Z,75.96
2022-09-06T03:32:35.343Z,76.41
2022-09-06T03:33:07.421Z,76.43
2022-09-06T03:33:38.849Z,76.61
2022-09-06T03:34:11.292Z,76.44
2022-09-06T03:35:01.269Z,76.94
2022-09-06T03:35:33.155Z,76.25
2022-09-06T03:36:04.904Z,76.52
2022-09-06T03:36:36.236Z,76.10
2022-09-06T03:37:07.607Z,76.05
2022-09-06T03:37:38.981Z,76.44
2022-09-06T03:38:10.331Z,76.71
2022-09-06T03:38:41.749Z,76.80
2022-09-06T03:39:13.178Z,76.61
2022-09-06T03:39:44.616Z,75.91
2022-09-06T03:40:16.156Z,76.41
2022-09-06T03:40:48.934Z,76.45
2022-09-06T03:41:20.501Z,76.58
2022-09-06T03:41:51.945Z,76.70
2022-09-06T03:42:26.006Z,76.60
2022-09-06T03:42:57.438Z,76.04
2022-09-06T03:43:29.242Z,76.23
2022-09-06T03:44:00.831Z,75.95
2022-09-06T03:44:32.293Z,76.76
2022-09-06T03:45:04.098Z,76.47
2022-09-06T03:45:35.469Z,76.68
2022-09-06T03:46:07.018Z,76.68
2022-09-06T03:46:38.494Z,77.15
2022-09-06T03:47:09.884Z,77.19
2022-09-06T03:47:59.729Z,76.96
2022-09-06T03:48:31.278Z,76.97
2022-09-06T03:49:02.674Z,76.43
2022-09-06T03:49:34.023Z,77.10
2022-09-06T03:50:07.196Z,76.78
2022-09-06T03:50:38.538Z,77.11
2022-09-06T03:51:09.885Z,76.76
2022-09-06T03:52:29.935Z,76.21
2022-09-06T03:53:01.270Z,75.87
2022-09-06T03:53:32.640Z,76.00
2022-09-06T03:54:04.123Z,76.32
2022-09-06T03:54:36.028Z,76.46
2022-09-06T03:55:07.798Z,77.09
2022-09-06T03:55:39.649Z,77.21
2022-09-06T03:57:00.097Z,77.14
2022-09-06T03:57:31.505Z,77.11
2022-09-06T03:58:21.569Z,76.82
2022-09-06T03:59:41.905Z,76.33
2022-09-06T04:01:08.548Z,77.05
2022-09-06T04:01:40.198Z,76.05
2022-09-06T04:02:11.781Z,77.00
2022-09-06T04:02:43.201Z,76.72
2022-09-06T04:03:15.237Z,77.47
2022-09-06T04:03:46.748Z,77.57
2022-09-06T04:04:18.314Z,77.10
2022-09-06T04:04:49.718Z,77.51
2022-09-06T04:05:21.089Z,76.43
2022-09-06T04:05:52.486Z,77.31
2022-09-06T04:06:23.961Z,77.55
2022-09-06T04:06:55.348Z,77.07
2022-09-06T04:07:26.739Z,76.89
2022-09-06T04:07:58.115Z,77.57
2022-09-06T04:08:29.786Z,76.99
2022-09-06T04:09:01.413Z,76.82
2022-09-06T04:09:32.927Z,77.05
2022-09-06T04:10:04.687Z,77.06
2022-09-06T04:10:55.260Z,76.34
2022-09-06T04:11:26.779Z,76.93
2022-09-06T04:11:58.264Z,77.59
2022-09-06T04:12:48.203Z,77.52
2022-09-06T04:13:19.572Z,76.92
2022-09-06T04:13:50.979Z,77.21
2022-09-06T04:14:22.690Z,77.26
2022-09-06T04:14:54.064Z,76.56
2022-09-06T04:15:25.392Z,77.47
2022-09-06T04:15:57.271Z,76.81
2022-09-06T04:16:28.648Z,77.73
2022-09-06T04:17:00.125Z,77.09
2022-09-06T04:17:31.550Z,78.45
2022-09-06T04:18:07.209Z,78.11
2022-09-06T04:18:40.681Z,78.37
2022-09-06T04:19:12.148Z,78.02
2022-09-06T04:19:43.477Z,78.43
2022-09-06T04:20:15.812Z,77.73
2022-09-06T04:20:52.271Z,77.98
2022-09-06T04:21:23.606Z,77.86
2022-09-06T04:21:55.226Z,78.14
2022-09-06T04:22:26.617Z,78.34
2022-09-06T04:22:57.950Z,77.81
2022-09-06T04:23:30.301Z,77.61
2022-09-06T04:24:01.847Z,77.84
2022-09-06T04:24:33.181Z,77.70
2022-09-06T04:26:13.076Z,77.46
2022-09-06T04:26:44.427Z,78.95
2022-09-06T04:27:15.751Z,78.33
2022-09-06T04:27:47.283Z,78.20
2022-09-06T04:28:19.217Z,78.06
2022-09-06T04:28:50.553Z,78.52
2022-09-06T04:29:21.912Z,78.63
2022-09-06T04:29:53.330Z,77.76
2022-09-06T04:30:24.875Z,77.96
2022-09-06T04:31:04.585Z,77.88
2022-09-06T04:31:54.945Z,78.29
2022-09-06T04:32:26.571Z,78.16
2022-09-06T04:32:57.931Z,77.75
2022-09-06T04:33:30.636Z,77.92
2022-09-06T04:34:50.957Z,78.01
2022-09-06T04:35:22.564Z,77.94
2022-09-06T04:35:56.447Z,78.70
2022-09-06T04:36:28.031Z,78.88
2022-09-06T04:36:59.404Z,78.07
2022-09-06T04:37:30.756Z,78.14
2022-09-06T04:38:03.863Z,77.53
2022-09-06T04:38:41.918Z,78.59
2022-09-06T04:39:32.628Z,78.36
2022-09-06T04:40:04.594Z,77.88
2022-09-06T04:40:35.963Z,77.96
2022-09-06T04:41:09.684Z,78.81
2022-09-06T04:41:41.073Z,78.29
2022-09-06T04:42:12.740Z,78.20
2022-09-06T04:42:44.078Z,78.08
2022-09-06T04:43:15.883Z,77.81
2022-09-06T04:44:06.104Z,77.81
2022-09-06T04:44:37.449Z,77.70
2022-09-06T04:45:09.379Z,78.33
2022-09-06T04:45:41.457Z,78.71
2022-09-06T04:46:20.939Z,78.34
2022-09-06T04:47:07.515Z,78.47
2022-09-06T04:47:40.763Z,78.43
2022-09-06T04:48:12.298Z,78.58
2022-09-06T04:48:43.849Z,78.31
2022-09-06T04:49:15.433Z,78.11
2022-09-06T04:49:49.358Z,78.82
2022-09-06T04:50:20.761Z,78.92
2022-09-06T04:50:52.143Z,77.90
2022-09-06T04:51:24.864Z,78.59
2022-09-06T04:52:14.763Z,78.21
2022-09-06T04:52:46.089Z,78.69
2022-09-06T04:53:35.818Z,78.66
2022-09-06T04:54:07.217Z,78.43
2022-09-06T04:54:38.655Z,78.29
2022-09-06T04:55:10.020Z,78.49
2022-09-06T04:55:41.375Z,78.91
2022-09-06T04:56:22.223Z,78.63
2022-09-06T04:56:53.571Z,78.91
2022-09-06T04:57:47.499Z,78.93
2022-09-06T04:58:20.942Z,78.34
2022-09-06T04:58:54.135Z,79.10
2022-09-06T04:59:25.503Z,78.95
2022-09-06T04:59:56.860Z,79.10
2022-09-06T05:00:47.459Z,78.67
2022-09-06T05:01:19.145Z,78.25
2022-09-06T05:01:50.649Z,78.51
2022-09-06T05:02:22.044Z,78.64
2022-09-06T05:02:53.471Z,78.20
2022-09-06T05:03:24.866Z,77.97
2022-09-06T05:03:57.046Z,78.19
2022-09-06T05:04:28.743Z,78.48
2022-09-06T05:05:00.087Z,78.79
2022-09-06T05:05:31.435Z,78.69
2022-09-06T05:06:06.966Z,78.64
2022-09-06T05:06:39.968Z,78.31
2022-09-06T05:07:11.373Z,78.51
2022-09-06T05:07:42.753Z,78.66
2022-09-06T05:08:14.941Z,78.92
2022-09-06T05:08:46.728Z,78.60
2022-09-06T05:09:18.212Z,78.34
2022-09-06T05:09:49.709Z,78.85
2022-09-06T05:10:22.608Z,78.07
2022-09-06T05:10:53.962Z,78.73
2022-09-06T05:12:02.427Z,78.23
2022-09-06T05:12:33.736Z,78.18
2022-09-06T05:13:05.076Z,78.73
2022-09-06T05:13:37.024Z,78.45
2022-09-06T05:14:08.360Z,78.82
2022-09-06T05:14:39.722Z,78.31
2022-09-06T05:15:11.300Z,78.12
2022-09-06T05:15:42.634Z,78.41
2022-09-06T05:16:14.381Z,78.57
2022-09-06T05:16:46.592Z,78.75
2022-09-06T05:17:18.068Z,77.83
2022-09-06T05:18:10.073Z,79.08
2022-09-06T05:18:44.188Z,78.71
2022-09-06T05:19:16.675Z,78.58
2022-09-06T05:20:06.610Z,78.39
2022-09-06T05:20:37.975Z,78.82
2022-09-06T05:21:09.527Z,78.44
2022-09-06T05:21:41.023Z,79.03
2022-09-06T05:22:12.440Z,78.50
2022-09-06T05:22:43.894Z,79.25
2022-09-06T05:23:15.236Z,78.30
2022-09-06T05:23:46.593Z,78.39
2022-09-06T05:24:18.021Z,78.45
2022-09-06T05:24:49.405Z,78.55
2022-09-06T05:25:21.072Z,78.07
2022-09-06T05:25:53.013Z,78.56
2022-09-06T05:26:24.419Z,78.19
2022-09-06T05:26:55.760Z,78.45
2022-09-06T05:27:27.094Z,78.89
2022-09-06T05:27:58.473Z,78.50
2022-09-06T05:28:29.947Z,78.87
2022-09-06T05:29:01.349Z,78.73
2022-09-06T05:29:33.027Z,78.66
2022-09-06T05:30:04.791Z,78.58
2022-09-06T05:30:36.194Z,78.43
2022-09-06T05:31:10.340Z,77.98
2022-09-06T05:31:41.786Z,78.34
2022-09-06T05:32:13.326Z,77.69
2022-09-06T05:32:44.772Z,78.39
2022-09-06T05:33:21.363Z,78.07
2022-09-06T05:33:54.115Z,77.91
2022-09-06T05:34:25.674Z,78.27
2022-09-06T05:34:57.046Z,77.85
2022-09-06T05:35:28.385Z,77.75
2022-09-06T05:35:59.888Z,78.30
2022-09-06T05:36:31.641Z,78.78
2022-09-06T05:37:21.723Z,78.19
2022-09-06T05:37:53.181Z,78.15
2022-09-06T05:38:28.123Z,77.65
2022-09-06T05:39:01.020Z,78.05
2022-09-06T05:39:32.355Z,78.35
2022-09-06T05:40:03.940Z,78.19
2022-09-06T05:40:35.435Z,78.68
2022-09-06T05:41:06.765Z,78.07
2022-09-06T05:41:38.224Z,78.33
2022-09-06T05:42:09.564Z,78.57
2022-09-06T05:42:41.108Z,77.76
2022-09-06T05:43:31.732Z,77.73
2022-09-06T05:44:03.724Z,78.27
2022-09-06T05:44:36.856Z,78.41
2022-09-06T05:45:27.198Z,77.95
2022-09-06T05:45:59.023Z,77.97
2022-09-06T05:46:30.488Z,78.58
2022-09-06T05:47:02.053Z,78.07
2022-09-06T05:47:35.337Z,78.26
2022-09-06T05:48:06.671Z,78.19
2022-09-06T05:48:38.465Z,77.98
2022-09-06T05:49:10.417Z,78.35
2022-09-06T05:49:41.758Z,78.55
2022-09-06T05:50:13.442Z,78.80
2022-09-06T05:50:44.803Z,78.12
2022-09-06T05:51:16.251Z,78.25
2022-09-06T05:52:25.665Z,77.29
2022-09-06T05:52:57.192Z,78.24
2022-09-06T05:53:37.431Z,78.68
2022-09-06T05:54:11.087Z,78.32
2022-09-06T05:54:42.432Z,78.35
2022-09-06T05:55:13.768Z,77.90
2022-09-06T05:55:45.915Z,78.37
2022-09-06T05:56:17.744Z,78.37
2022-09-06T05:56:49.547Z,78.48
2022-09-06T05:57:21.027Z,78.71
2022-09-06T05:57:52.401Z,77.81
2022-09-06T05:58:23.826Z,78.20
2022-09-06T05:58:55.396Z,78.59
2022-09-06T05:59:26.905Z,78.28
2022-09-06T05:59:58.464Z,78.49
2022-09-06T06:00:29.979Z,78.63
2022-09-06T06:01:06.337Z,79.22
2022-09-06T06:01:46.804Z,79.77
2022-09-06T06:02:18.283Z,78.84
2022-09-06T06:02:49.967Z,79.75
2022-09-06T06:03:21.603Z,79.59
2022-09-06T06:03:55.196Z,79.81
2022-09-06T06:04:26.615Z,79.08
2022-09-06T06:04:58.773Z,79.18
2022-09-06T06:05:30.180Z,78.87
2022-09-06T06:06:01.535Z,79.34
2022-09-06T06:06:34.424Z,78.94
2022-09-06T06:07:55.573Z,78.67
2022-09-06T06:08:27.211Z,78.25
2022-09-06T06:08:59.528Z,79.30
2022-09-06T06:09:30.855Z,79.43
2022-09-06T06:10:02.244Z,78.61
2022-09-06T06:10:38.512Z,78.54
2022-09-06T06:11:29.519Z,79.13
2022-09-06T06:12:00.842Z,78.68
2022-09-06T06:12:51.080Z,78.19
2022-09-06T06:13:22.404Z,78.31
2022-09-06T06:13:54.628Z,78.51
2022-09-06T06:14:44.433Z,78.12
2022-09-06T06:15:15.880Z,78.17
2022-09-06T06:15:47.461Z,78.63
2022-09-06T06:16:38.591Z,78.71
2022-09-06T06:17:10.016Z,78.51
2022-09-06T06:17:41.387Z,78.44
2022-09-06T06:18:12.723Z,78.12
2022-09-06T06:18:47.632Z,79.16
2022-09-06T06:19:40.418Z,79.19
2022-09-06T06:20:11.797Z,79.50
2022-09-06T06:20:52.134Z,79.58
2022-09-06T06:21:26.137Z,79.51
2022-09-06T06:21:58.320Z,79.16
2022-09-06T06:22:48.273Z,80.01
2022-09-06T06:23:19.621Z,80.08
2022-09-06T06:24:08.621Z,79.88
2022-09-06T06:24:39.931Z,80.04
2022-09-06T06:25:30.868Z,79.17
2022-09-06T06:26:02.246Z,80.23
2022-09-06T06:26:35.903Z,79.48
2022-09-06T06:27:07.220Z,80.21
2022-09-06T06:27:38.673Z,80.75
2022-09-06T06:28:09.995Z,80.00
2022-09-06T06:28:41.416Z,80.80
2022-09-06T06:29:12.758Z,80.20
2022-09-06T06:30:02.598Z,80.60
2022-09-06T06:30:54.243Z,80.63
2022-09-06T06:31:25.618Z,79.86
2022-09-06T06:31:57.048Z,80.07
2022-09-06T06:32:28.535Z,80.13
2022-09-06T06:33:00.413Z,80.91
2022-09-06T06:33:32.474Z,79.91
2022-09-06T06:34:04.085Z,80.92
2022-09-06T06:34:35.395Z,80.83
2022-09-06T06:35:07.024Z,80.23
2022-09-06T06:35:40.111Z,80.36
2022-09-06T06:36:14.392Z,79.73
2022-09-06T06:36:45.695Z,79.53
2022-09-06T06:37:17.024Z,80.27
2022-09-06T06:37:48.342Z,80.21
2022-09-06T06:38:19.661Z,80.29
2022-09-06T06:38:55.317Z,79.50
2022-09-06T06:39:26.723Z,79.66
2022-09-06T06:39:58.873Z,79.31
2022-09-06T06:40:30.926Z,80.47
2022-09-06T06:41:20.891Z,81.18
2022-09-06T06:41:52.907Z,80.77
2022-09-06T06:42:24.266Z,80.41
2022-09-06T06:42:55.692Z,80.64
2022-09-06T06:43:28.255Z,80.76
2022-09-06T06:44:53.263Z,81.10
2022-09-06T06:45:24.676Z,80.07
2022-09-06T06:45:56.144Z,79.67
2022-09-06T06:46:35.648Z,80.48
2022-09-06T06:47:07.093Z,80.31
2022-09-06T06:47:38.406Z,79.86
2022-09-06T06:48:09.718Z,79.98
2022-09-06T06:48:59.963Z,79.64
2022-09-06T06:49:31.335Z,80.44
2022-09-06T06:50:02.666Z,80.20
2022-09-06T06:50:34.035Z,80.24
2022-09-06T06:51:24.011Z,79.95
2022-09-06T06:51:55.334Z,79.56
2022-09-06T06:52:26.695Z,80.27
2022-09-06T06:53:47.928Z,79.39
2022-09-06T06:55:08.909Z,80.39
2022-09-06T06:55:46.588Z,79.50
2022-09-06T06:56:35.163Z,80.91
2022-09-06T06:57:06.819Z,80.54
2022-09-06T06:57:38.173Z,80.20
2022-09-06T06:58:09.491Z,80.32
2022-09-06T06:58:41.187Z,80.50
2022-09-06T06:59:14.399Z,80.09
2022-09-06T06:59:45.823Z,80.36
2022-09-06T07:00:17.323Z,80.22
2022-09-06T07:00:48.714Z,80.31
2022-09-06T07:01:22.023Z,79.71
2022-09-06T07:01:53.646Z,79.78
2022-09-06T07:02:25.156Z,79.07
2022-09-06T07:02:57.071Z,79.92
2022-09-06T07:03:28.386Z,80.08
2022-09-06T07:03:59.911Z,80.20
2022-09-06T07:04:31.250Z,81.01
2022-09-06T07:08:05.424Z,79.46
2022-09-06T07:08:39.708Z,79.66
2022-09-06T07:09:11.022Z,79.37
2022-09-06T07:10:34.479Z,79.19
2022-09-06T07:11:07.419Z,79.58
2022-09-06T07:11:57.023Z,79.57
2022-09-06T07:12:28.344Z,79.20
2022-09-06T07:12:59.873Z,78.40
2022-09-06T07:13:31.813Z,78.70
2022-09-06T07:14:03.139Z,78.71
2022-09-06T07:14:34.455Z,78.59
2022-09-06T07:15:06.157Z,78.37
2022-09-06T07:15:37.484Z,78.98
2022-09-06T07:16:10.536Z,79.03
2022-09-06T07:16:42.562Z,77.84
2022-09-06T07:18:02.554Z,78.87
2022-09-06T07:18:52.538Z,78.74
2022-09-06T07:20:16.242Z,79.36
2022-09-06T07:21:39.375Z,78.25
2022-09-06T07:22:13.630Z,78.45
2022-09-06T07:22:45.208Z,78.62
2022-09-06T07:24:09.170Z,79.14
2022-09-06T07:24:41.147Z,78.60
2022-09-06T07:25:20.378Z,77.96
2022-09-06T07:26:11.141Z,78.81
2022-09-06T07:28:05.738Z,77.67
2022-09-06T07:28:37.240Z,77.42
2022-09-06T07:29:08.810Z,78.00
2022-09-06T07:29:40.116Z,77.34
2022-09-06T07:30:11.889Z,77.68
2022-09-06T07:30:43.216Z,77.72
2022-09-06T07:32:13.208Z,77.43
2022-09-06T07:32:44.604Z,78.33
2022-09-06T07:33:34.377Z,77.34
2022-09-06T07:34:05.750Z,78.48
2022-09-06T07:34:39.471Z,77.22
2022-09-06T07:35:13.723Z,77.81
2022-09-06T07:35:55.328Z,77.89
2022-09-06T07:36:26.830Z,77.42
2022-09-06T07:36:58.227Z,77.49
2022-09-06T07:37:29.532Z,77.00
2022-09-06T07:38:01.862Z,77.08
2022-09-06T07:38:34.287Z,76.48
2022-09-06T07:39:05.676Z,77.63
2022-09-06T07:39:37.115Z,77.27
2022-09-06T07:40:09.681Z,76.64
2022-09-06T07:40:41.118Z,76.95
2022-09-06T07:41:12.439Z,76.51
2022-09-06T07:42:02.292Z,77.23
2022-09-06T07:42:36.424Z,76.27
2022-09-06T07:43:08.054Z,76.05
2022-09-06T07:43:39.430Z,76.79
2022-09-06T07:44:10.746Z,76.15
2022-09-06T07:44:42.074Z,76.98
2022-09-06T07:45:13.402Z,76.27
2022-09-06T07:46:33.766Z,75.29
2022-09-06T07:47:59.670Z,75.80
2022-09-06T07:48:33.358Z,75.00
2022-09-06T07:49:05.769Z,75.57
2022-09-06T07:49:37.202Z,75.06
2022-09-06T07:51:21.053Z,75.26
2022-09-06T07:51:52.368Z,75.87
2022-09-06T07:53:24.780Z,75.57
2022-09-06T07:54:26.141Z,75.28
2022-09-06T07:54:53.843Z,74.64
2022-09-06T07:55:25.999Z,75.38
2022-09-06T07:57:05.062Z,75.15
2022-09-06T07:57:36.399Z,74.89
2022-09-06T07:58:07.722Z,75.22
2022-09-06T07:58:40.308Z,74.73
2022-09-06T07:59:11.635Z,74.78
2022-09-06T07:59:43.105Z,74.43
2022-09-06T08:00:14.615Z,74.51
2022-09-06T08:00:46.025Z,74.48
2022-09-06T08:01:37.323Z,74.38
2022-09-06T08:02:08.682Z,75.08
2022-09-06T08:02:40.828Z,74.72
2022-09-06T08:03:12.940Z,74.90
2022-09-06T08:03:44.981Z,74.12
2022-09-06T08:04:16.296Z,75.04
2022-09-06T08:04:51.447Z,73.95
2022-09-06T08:07:40.125Z,74.13
2022-09-06T08:09:06.313Z,74.13
2022-09-06T08:09:37.670Z,73.67
2022-09-06T08:10:09.220Z,73.32
2022-09-06T08:10:40.644Z,73.72
2022-09-06T08:11:11.968Z,73.05
2022-09-06T08:11:43.450Z,73.78